ANA215 ROAH-RJOO
Flight info
| Callsign | ANA215 |
|---|---|
| Flight time | 1h 36m |
| Altitude | 39000 |
| Route | AMAMI Y53 MADOG Y753 IZUMI |
| Aircraft | B77W/H-SDE1E2E3FGHIJ2J3J4J5M1RWXY/LB1D1 |
Departure
| Time | 2026-04-20 23:20 |
|---|---|
| Airport | Naha International Airport (ROAH) |
Arrival
| Time | 2026-04-21 00:56 |
|---|---|
| Airport | Osaka Itami International Airport (RJOO) |
| Time | Latitude | Longitude | Altitude | Speed | Heading |
|---|---|---|---|---|---|
| 2026-04-20 22:40 | 26.21154 | 127.64960 | 33 ft | 0 kts | 87° |
| 2026-04-20 23:05 | 26.21154 | 127.64943 | 33 ft | 2 kts | 88° |
| 2026-04-20 23:05 | 26.21154 | 127.64925 | 33 ft | 2 kts | 90° |
| 2026-04-20 23:05 | 26.21154 | 127.64906 | 33 ft | 2 kts | 92° |
| 2026-04-20 23:05 | 26.21155 | 127.64888 | 32 ft | 2 kts | 95° |
| 2026-04-20 23:06 | 26.21157 | 127.64870 | 30 ft | 2 kts | 99° |
| 2026-04-20 23:06 | 26.21160 | 127.64852 | 30 ft | 2 kts | 108° |
| 2026-04-20 23:06 | 26.21167 | 127.64835 | 31 ft | 2 kts | 127° |
| 2026-04-20 23:06 | 26.21179 | 127.64823 | 31 ft | 2 kts | 165° |
| 2026-04-20 23:07 | 26.21189 | 127.64821 | 31 ft | 1 kts | 179° |
| 2026-04-20 23:07 | 26.21190 | 127.64821 | 31 ft | 0 kts | 179° |
| 2026-04-20 23:11 | 26.21126 | 127.64813 | 33 ft | 13 kts | 194° |
| 2026-04-20 23:12 | 26.21044 | 127.64763 | 33 ft | 13 kts | 207° |
| 2026-04-20 23:12 | 26.20953 | 127.64736 | 33 ft | 13 kts | 186° |
| 2026-04-20 23:12 | 26.20868 | 127.64735 | 33 ft | 13 kts | 179° |
| 2026-04-20 23:12 | 26.20849 | 127.64735 | 33 ft | 13 kts | 179° |
| 2026-04-20 23:13 | 26.20755 | 127.64739 | 33 ft | 13 kts | 178° |
| 2026-04-20 23:13 | 26.20662 | 127.64742 | 33 ft | 13 kts | 178° |
| 2026-04-20 23:13 | 26.20568 | 127.64747 | 33 ft | 13 kts | 177° |
| 2026-04-20 23:13 | 26.20474 | 127.64752 | 33 ft | 13 kts | 177° |
| 2026-04-20 23:14 | 26.20339 | 127.64758 | 33 ft | 29 kts | 177° |
| 2026-04-20 23:14 | 26.20071 | 127.64771 | 33 ft | 36 kts | 177° |
| 2026-04-20 23:14 | 26.19874 | 127.64781 | 33 ft | 26 kts | 177° |
| 2026-04-20 23:14 | 26.19694 | 127.64790 | 33 ft | 26 kts | 178° |
| 2026-04-20 23:15 | 26.19524 | 127.64797 | 33 ft | 23 kts | 178° |
| 2026-04-20 23:15 | 26.19363 | 127.64804 | 33 ft | 23 kts | 178° |
| 2026-04-20 23:15 | 26.19207 | 127.64811 | 33 ft | 23 kts | 178° |
| 2026-04-20 23:15 | 26.19041 | 127.64820 | 33 ft | 28 kts | 178° |
| 2026-04-20 23:16 | 26.18845 | 127.64828 | 33 ft | 28 kts | 178° |
| 2026-04-20 23:16 | 26.18649 | 127.64838 | 33 ft | 28 kts | 177° |
| 2026-04-20 23:16 | 26.18470 | 127.64847 | 34 ft | 25 kts | 178° |
| 2026-04-20 23:16 | 26.18321 | 127.64854 | 33 ft | 15 kts | 178° |
| 2026-04-20 23:17 | 26.18256 | 127.64814 | 33 ft | 7 kts | 242° |
| 2026-04-20 23:17 | 26.18247 | 127.64777 | 33 ft | 0 kts | 260° |
| 2026-04-20 23:17 | 26.18247 | 127.64773 | 33 ft | 0 kts | 260° |
| 2026-04-20 23:18 | 26.18243 | 127.64738 | 32 ft | 14 kts | 267° |
| 2026-04-20 23:18 | 26.18281 | 127.64655 | 31 ft | 10 kts | 333° |
| 2026-04-20 23:18 | 26.18342 | 127.64644 | 31 ft | 0 kts | 357° |
| 2026-04-20 23:19 | 26.18447 | 127.64638 | 31 ft | 53 kts | 358° |
| 2026-04-20 23:19 | 26.19111 | 127.64607 | 34 ft | 135 kts | 357° |
| 2026-04-20 23:19 | 26.20271 | 127.64547 | 98 ft | 192 kts | 357° |
| 2026-04-20 23:20 | 26.21665 | 127.64505 | 704 ft | 208 kts | 360° |
| 2026-04-20 23:20 | 26.23116 | 127.64537 | 1722 ft | 205 kts | 2° |
| 2026-04-20 23:20 | 26.24521 | 127.64585 | 2729 ft | 204 kts | 355° |
| 2026-04-20 23:20 | 26.25956 | 127.64016 | 3070 ft | 237 kts | 333° |
| 2026-04-20 23:21 | 26.27451 | 127.63083 | 3760 ft | 250 kts | 332° |
| 2026-04-20 23:21 | 26.28996 | 127.62113 | 4692 ft | 260 kts | 332° |
| 2026-04-20 23:21 | 26.30555 | 127.61130 | 5722 ft | 261 kts | 332° |
| 2026-04-20 23:21 | 26.32173 | 127.60108 | 6680 ft | 266 kts | 332° |
| 2026-04-20 23:22 | 26.33777 | 127.59094 | 7550 ft | 272 kts | 332° |
| 2026-04-20 23:22 | 26.35460 | 127.58030 | 8432 ft | 277 kts | 331° |
| 2026-04-20 23:22 | 26.37159 | 127.56957 | 9283 ft | 285 kts | 330° |
| 2026-04-20 23:22 | 26.38879 | 127.55865 | 10111 ft | 289 kts | 327° |
| 2026-04-20 23:23 | 26.40383 | 127.54360 | 10636 ft | 301 kts | 303° |
| 2026-04-20 23:23 | 26.41180 | 127.52122 | 10902 ft | 325 kts | 276° |
| 2026-04-20 23:23 | 26.40954 | 127.49543 | 11234 ft | 347 kts | 248° |
| 2026-04-20 23:23 | 26.39615 | 127.47305 | 12112 ft | 349 kts | 229° |
| 2026-04-20 23:24 | 26.37952 | 127.45299 | 13068 ft | 355 kts | 228° |
| 2026-04-20 23:24 | 26.36261 | 127.43253 | 13919 ft | 361 kts | 225° |
| 2026-04-20 23:24 | 26.34169 | 127.41644 | 14572 ft | 373 kts | 205° |
| 2026-04-20 23:24 | 26.31648 | 127.40838 | 15416 ft | 382 kts | 188° |
| 2026-04-20 23:25 | 26.28975 | 127.40772 | 16270 ft | 387 kts | 181° |
| 2026-04-20 23:25 | 26.26256 | 127.40859 | 17106 ft | 394 kts | 180° |
| 2026-04-20 23:25 | 26.23501 | 127.40951 | 17997 ft | 399 kts | 181° |
| 2026-04-20 23:25 | 26.20704 | 127.41008 | 18826 ft | 404 kts | 182° |
| 2026-04-20 23:26 | 26.17889 | 127.41044 | 19643 ft | 405 kts | 181° |
| 2026-04-20 23:26 | 26.15085 | 127.41538 | 20246 ft | 419 kts | 164° |
| 2026-04-20 23:26 | 26.12496 | 127.43124 | 20981 ft | 433 kts | 144° |
| 2026-04-20 23:26 | 26.10434 | 127.45613 | 21786 ft | 445 kts | 126° |
| 2026-04-20 23:27 | 26.09155 | 127.48786 | 22543 ft | 458 kts | 107° |
| 2026-04-20 23:27 | 26.08864 | 127.52351 | 23215 ft | 471 kts | 86° |
| 2026-04-20 23:27 | 26.09428 | 127.55954 | 23741 ft | 478 kts | 79° |
| 2026-04-20 23:27 | 26.10163 | 127.59592 | 24220 ft | 486 kts | 78° |
| 2026-04-20 23:28 | 26.10927 | 127.63263 | 24856 ft | 489 kts | 78° |
| 2026-04-20 23:28 | 26.11672 | 127.66962 | 25507 ft | 492 kts | 78° |
| 2026-04-20 23:28 | 26.12392 | 127.70707 | 26121 ft | 496 kts | 78° |
| 2026-04-20 23:28 | 26.13091 | 127.74487 | 26699 ft | 502 kts | 78° |
| 2026-04-20 23:29 | 26.13782 | 127.78312 | 27273 ft | 507 kts | 78° |
| 2026-04-20 23:29 | 26.14476 | 127.82170 | 27827 ft | 511 kts | 78° |
| 2026-04-20 23:29 | 26.15179 | 127.86072 | 28385 ft | 516 kts | 78° |
| 2026-04-20 23:29 | 26.15903 | 127.89991 | 28902 ft | 517 kts | 76° |
| 2026-04-20 23:30 | 26.17172 | 127.93753 | 29257 ft | 522 kts | 58° |
| 2026-04-20 23:30 | 26.19307 | 127.97011 | 29777 ft | 520 kts | 43° |
| 2026-04-20 23:30 | 26.22031 | 127.99527 | 30307 ft | 512 kts | 27° |
| 2026-04-20 23:30 | 26.25103 | 128.01509 | 30669 ft | 513 kts | 25° |
| 2026-04-20 23:31 | 26.28211 | 128.03496 | 31009 ft | 518 kts | 26° |
| 2026-04-20 23:31 | 26.31305 | 128.05510 | 31451 ft | 519 kts | 26° |
| 2026-04-20 23:31 | 26.34429 | 128.07586 | 32058 ft | 517 kts | 27° |
| 2026-04-20 23:31 | 26.37476 | 128.09639 | 32686 ft | 514 kts | 27° |
| 2026-04-20 23:32 | 26.40544 | 128.11721 | 33304 ft | 512 kts | 27° |
| 2026-04-20 23:32 | 26.43585 | 128.13790 | 33843 ft | 511 kts | 27° |
| 2026-04-20 23:32 | 26.46613 | 128.15851 | 34321 ft | 510 kts | 27° |
| 2026-04-20 23:32 | 26.49635 | 128.17905 | 34770 ft | 509 kts | 27° |
| 2026-04-20 23:33 | 26.52662 | 128.19962 | 35210 ft | 508 kts | 27° |
| 2026-04-20 23:33 | 26.55684 | 128.22015 | 35636 ft | 508 kts | 27° |
| 2026-04-20 23:33 | 26.58695 | 128.24063 | 36061 ft | 507 kts | 27° |
| 2026-04-20 23:33 | 26.61710 | 128.26114 | 36480 ft | 506 kts | 27° |
| 2026-04-20 23:34 | 26.64713 | 128.28159 | 36892 ft | 506 kts | 27° |
| 2026-04-20 23:34 | 26.67713 | 128.30235 | 37096 ft | 510 kts | 30° |
| 2026-04-20 23:34 | 26.70411 | 128.32852 | 37076 ft | 518 kts | 46° |
| 2026-04-20 23:34 | 26.72663 | 128.35993 | 37082 ft | 518 kts | 50° |
| 2026-04-20 23:35 | 26.79155 | 128.45614 | 37062 ft | 514 kts | 50° |
| 2026-04-20 23:36 | 26.83577 | 128.51896 | 37061 ft | 513 kts | 49° |
| 2026-04-20 23:36 | 26.88403 | 128.57709 | 37069 ft | 507 kts | 37° |
| 2026-04-20 23:37 | 26.94110 | 128.62270 | 37061 ft | 502 kts | 26° |
| 2026-04-20 23:37 | 27.00210 | 128.66092 | 37068 ft | 503 kts | 25° |
| 2026-04-20 23:38 | 27.06348 | 128.69872 | 37066 ft | 504 kts | 25° |
| 2026-04-20 23:38 | 27.11450 | 128.73059 | 37070 ft | 505 kts | 25° |
| 2026-04-20 23:39 | 27.17589 | 128.76940 | 37065 ft | 506 kts | 25° |
| 2026-04-20 23:39 | 27.24722 | 128.81470 | 37061 ft | 507 kts | 25° |
| 2026-04-20 23:40 | 27.30738 | 128.85294 | 37058 ft | 506 kts | 26° |
| 2026-04-20 23:40 | 27.35872 | 128.88559 | 37057 ft | 506 kts | 25° |
| 2026-04-20 23:41 | 27.42002 | 128.92461 | 37058 ft | 506 kts | 25° |
| 2026-04-20 23:41 | 27.48126 | 128.96363 | 37063 ft | 505 kts | 25° |
| 2026-04-20 23:42 | 27.54236 | 129.00262 | 37062 ft | 505 kts | 25° |
| 2026-04-20 23:42 | 27.60344 | 129.04165 | 37070 ft | 505 kts | 25° |
| 2026-04-20 23:43 | 27.66414 | 129.08048 | 37072 ft | 504 kts | 25° |
| 2026-04-20 23:43 | 27.72516 | 129.11957 | 37071 ft | 505 kts | 25° |
| 2026-04-20 23:44 | 27.78618 | 129.15871 | 37068 ft | 505 kts | 25° |
| 2026-04-20 23:44 | 27.84726 | 129.19794 | 37075 ft | 505 kts | 25° |
| 2026-04-20 23:45 | 27.90828 | 129.23719 | 37075 ft | 505 kts | 25° |
| 2026-04-20 23:45 | 27.96932 | 129.27649 | 37074 ft | 505 kts | 25° |
| 2026-04-20 23:46 | 28.03038 | 129.31587 | 37072 ft | 505 kts | 25° |
| 2026-04-20 23:46 | 28.09141 | 129.35527 | 37070 ft | 505 kts | 25° |
| 2026-04-20 23:47 | 28.15244 | 129.39474 | 37080 ft | 505 kts | 25° |
| 2026-04-20 23:47 | 28.21348 | 129.43425 | 37070 ft | 505 kts | 25° |
| 2026-04-20 23:48 | 28.27447 | 129.47378 | 37055 ft | 505 kts | 25° |
| 2026-04-20 23:48 | 28.33558 | 129.51346 | 37045 ft | 506 kts | 25° |
| 2026-04-20 23:49 | 28.39626 | 129.55291 | 37039 ft | 506 kts | 25° |
| 2026-04-20 23:49 | 28.45728 | 129.59277 | 37030 ft | 507 kts | 26° |
| 2026-04-20 23:50 | 28.51714 | 129.63578 | 37028 ft | 509 kts | 28° |
| 2026-04-20 23:50 | 28.57625 | 129.68007 | 37036 ft | 509 kts | 28° |
| 2026-04-20 23:51 | 28.63550 | 129.72405 | 37031 ft | 508 kts | 28° |
| 2026-04-20 23:51 | 28.69486 | 129.76767 | 37049 ft | 508 kts | 27° |
| 2026-04-20 23:52 | 28.75426 | 129.81124 | 37074 ft | 508 kts | 27° |
| 2026-04-20 23:52 | 28.81371 | 129.85493 | 37064 ft | 508 kts | 27° |
| 2026-04-20 23:53 | 28.87311 | 129.89869 | 37067 ft | 509 kts | 27° |
| 2026-04-20 23:53 | 28.93254 | 129.94253 | 37064 ft | 509 kts | 27° |
| 2026-04-20 23:54 | 28.99199 | 129.98645 | 37069 ft | 509 kts | 27° |
| 2026-04-20 23:54 | 29.05156 | 130.03051 | 37068 ft | 510 kts | 27° |
| 2026-04-20 23:55 | 29.11109 | 130.07461 | 37066 ft | 510 kts | 27° |
| 2026-04-20 23:55 | 29.17065 | 130.11879 | 37060 ft | 511 kts | 27° |
| 2026-04-20 23:56 | 29.23022 | 130.16306 | 37062 ft | 511 kts | 27° |
| 2026-04-20 23:56 | 29.28982 | 130.20739 | 37066 ft | 511 kts | 27° |
| 2026-04-20 23:57 | 29.34944 | 130.25180 | 37062 ft | 511 kts | 27° |
| 2026-04-20 23:57 | 29.40912 | 130.29631 | 37064 ft | 512 kts | 27° |
| 2026-04-20 23:58 | 29.46876 | 130.34087 | 37058 ft | 512 kts | 27° |
| 2026-04-20 23:58 | 29.52848 | 130.38556 | 37061 ft | 512 kts | 27° |
| 2026-04-20 23:59 | 29.58816 | 130.43027 | 37056 ft | 512 kts | 27° |
| 2026-04-20 23:59 | 29.64784 | 130.47506 | 37059 ft | 513 kts | 27° |
| 2026-04-21 00:00 | 29.70754 | 130.51993 | 37057 ft | 513 kts | 27° |
| 2026-04-21 00:00 | 29.76691 | 130.56461 | 37061 ft | 513 kts | 27° |
| 2026-04-21 00:01 | 29.82662 | 130.60961 | 37049 ft | 513 kts | 27° |
| 2026-04-21 00:01 | 29.88637 | 130.65472 | 37050 ft | 514 kts | 27° |
| 2026-04-21 00:02 | 29.94612 | 130.69989 | 37053 ft | 514 kts | 27° |
| 2026-04-21 00:02 | 30.00597 | 130.74519 | 37052 ft | 514 kts | 27° |
| 2026-04-21 00:03 | 30.06579 | 130.79053 | 37056 ft | 515 kts | 27° |
| 2026-04-21 00:03 | 30.12563 | 130.83596 | 37054 ft | 515 kts | 27° |
| 2026-04-21 00:04 | 30.18552 | 130.88151 | 37052 ft | 515 kts | 26° |
| 2026-04-21 00:04 | 30.24537 | 130.92710 | 37054 ft | 515 kts | 26° |
| 2026-04-21 00:05 | 30.30522 | 130.97275 | 37045 ft | 515 kts | 26° |
| 2026-04-21 00:05 | 30.36505 | 131.01846 | 37049 ft | 515 kts | 26° |
| 2026-04-21 00:06 | 30.42494 | 131.06429 | 37059 ft | 516 kts | 26° |
| 2026-04-21 00:06 | 30.48478 | 131.11014 | 37054 ft | 516 kts | 26° |
| 2026-04-21 00:07 | 30.54463 | 131.15606 | 37048 ft | 516 kts | 26° |
| 2026-04-21 00:07 | 30.60452 | 131.20211 | 37050 ft | 516 kts | 26° |
| 2026-04-21 00:08 | 30.66436 | 131.24819 | 37044 ft | 516 kts | 26° |
| 2026-04-21 00:08 | 30.72419 | 131.29434 | 37043 ft | 516 kts | 26° |
| 2026-04-21 00:09 | 30.78402 | 131.34056 | 37045 ft | 516 kts | 26° |
| 2026-04-21 00:09 | 30.84387 | 131.38686 | 37047 ft | 516 kts | 26° |
| 2026-04-21 00:10 | 30.88343 | 131.41750 | 37044 ft | 516 kts | 26° |
| 2026-04-21 00:10 | 30.91122 | 131.43905 | 37044 ft | 516 kts | 26° |
| 2026-04-21 00:11 | 30.97101 | 131.48546 | 37047 ft | 516 kts | 26° |
| 2026-04-21 00:11 | 31.03084 | 131.53195 | 37051 ft | 521 kts | 26° |
| 2026-04-21 00:12 | 31.09190 | 131.57939 | 37056 ft | 533 kts | 26° |
| 2026-04-21 00:12 | 31.15419 | 131.62798 | 37055 ft | 542 kts | 26° |
| 2026-04-21 00:13 | 31.21675 | 131.67695 | 37055 ft | 541 kts | 26° |
| 2026-04-21 00:13 | 31.27912 | 131.72577 | 37051 ft | 539 kts | 26° |
| 2026-04-21 00:14 | 31.34129 | 131.77448 | 37034 ft | 537 kts | 26° |
| 2026-04-21 00:14 | 31.40331 | 131.82319 | 37045 ft | 536 kts | 26° |
| 2026-04-21 00:15 | 31.46513 | 131.87183 | 37051 ft | 535 kts | 26° |
| 2026-04-21 00:15 | 31.52684 | 131.92045 | 37048 ft | 534 kts | 26° |
| 2026-04-21 00:16 | 31.58848 | 131.96910 | 37053 ft | 534 kts | 26° |
| 2026-04-21 00:16 | 31.65012 | 132.01783 | 37054 ft | 534 kts | 26° |
| 2026-04-21 00:17 | 31.71179 | 132.06665 | 37060 ft | 535 kts | 26° |
| 2026-04-21 00:17 | 31.77347 | 132.11558 | 37060 ft | 535 kts | 26° |
| 2026-04-21 00:18 | 31.83524 | 132.16466 | 37063 ft | 536 kts | 26° |
| 2026-04-21 00:18 | 31.89699 | 132.21380 | 37064 ft | 536 kts | 26° |
| 2026-04-21 00:19 | 31.95839 | 132.26275 | 37066 ft | 536 kts | 26° |
| 2026-04-21 00:19 | 32.02057 | 132.31241 | 37066 ft | 537 kts | 26° |
| 2026-04-21 00:20 | 32.08175 | 132.36193 | 37064 ft | 541 kts | 30° |
| 2026-04-21 00:20 | 32.13698 | 132.42391 | 37064 ft | 555 kts | 43° |
| 2026-04-21 00:21 | 32.18180 | 132.49918 | 37054 ft | 565 kts | 53° |
| 2026-04-21 00:21 | 32.22239 | 132.57864 | 37054 ft | 566 kts | 54° |
| 2026-04-21 00:22 | 32.26309 | 132.65811 | 37049 ft | 565 kts | 53° |
| 2026-04-21 00:22 | 32.30442 | 132.73724 | 37029 ft | 565 kts | 53° |
| 2026-04-21 00:23 | 32.34590 | 132.81622 | 37044 ft | 566 kts | 53° |
| 2026-04-21 00:23 | 32.38735 | 132.89541 | 37023 ft | 566 kts | 53° |
| 2026-04-21 00:24 | 32.42866 | 132.97465 | 37030 ft | 566 kts | 53° |
| 2026-04-21 00:24 | 32.46297 | 133.04061 | 37022 ft | 566 kts | 53° |
| 2026-04-21 00:25 | 32.51118 | 133.13349 | 37028 ft | 567 kts | 53° |
| 2026-04-21 00:25 | 32.55243 | 133.21313 | 37019 ft | 567 kts | 53° |
| 2026-04-21 00:26 | 32.58667 | 133.27937 | 37018 ft | 567 kts | 53° |
| 2026-04-21 00:26 | 32.62780 | 133.35909 | 37016 ft | 567 kts | 53° |
| 2026-04-21 00:27 | 32.66888 | 133.43910 | 37018 ft | 568 kts | 53° |
| 2026-04-21 00:27 | 32.70927 | 133.51974 | 37014 ft | 569 kts | 54° |
| 2026-04-21 00:28 | 32.74954 | 133.60065 | 37010 ft | 569 kts | 54° |
| 2026-04-21 00:28 | 32.78989 | 133.68155 | 37017 ft | 569 kts | 54° |
| 2026-04-21 00:29 | 32.83021 | 133.76250 | 37017 ft | 569 kts | 54° |
| 2026-04-21 00:29 | 32.87041 | 133.84378 | 37016 ft | 570 kts | 54° |
| 2026-04-21 00:30 | 32.91052 | 133.92519 | 37011 ft | 571 kts | 54° |
| 2026-04-21 00:30 | 32.95064 | 134.00675 | 37010 ft | 571 kts | 54° |
| 2026-04-21 00:31 | 32.99073 | 134.08839 | 37012 ft | 571 kts | 54° |
| 2026-04-21 00:31 | 33.03096 | 134.17003 | 37008 ft | 570 kts | 52° |
| 2026-04-21 00:32 | 33.07810 | 134.24470 | 37017 ft | 559 kts | 41° |
| 2026-04-21 00:32 | 33.13305 | 134.30881 | 37015 ft | 548 kts | 32° |
| 2026-04-21 00:33 | 33.19128 | 134.36730 | 37025 ft | 547 kts | 31° |
| 2026-04-21 00:33 | 33.24892 | 134.42537 | 36659 ft | 534 kts | 31° |
| 2026-04-21 00:33 | 33.27708 | 134.45414 | 35980 ft | 532 kts | 32° |
| 2026-04-21 00:34 | 33.30494 | 134.48264 | 34931 ft | 539 kts | 32° |
| 2026-04-21 00:34 | 33.33368 | 134.51208 | 33769 ft | 548 kts | 33° |
| 2026-04-21 00:34 | 33.36284 | 134.54201 | 32481 ft | 556 kts | 34° |
| 2026-04-21 00:34 | 33.39222 | 134.57227 | 31402 ft | 558 kts | 34° |
| 2026-04-21 00:35 | 33.42154 | 134.60260 | 30668 ft | 554 kts | 35° |
| 2026-04-21 00:35 | 33.45038 | 134.63248 | 30101 ft | 546 kts | 35° |
| 2026-04-21 00:35 | 33.47895 | 134.66207 | 29440 ft | 538 kts | 35° |
| 2026-04-21 00:35 | 33.50707 | 134.69114 | 28823 ft | 531 kts | 35° |
| 2026-04-21 00:36 | 33.53491 | 134.71991 | 28219 ft | 525 kts | 35° |
| 2026-04-21 00:36 | 33.56236 | 134.74830 | 27607 ft | 519 kts | 35° |
| 2026-04-21 00:36 | 33.58990 | 134.77583 | 26990 ft | 511 kts | 32° |
| 2026-04-21 00:36 | 33.61867 | 134.80008 | 26384 ft | 500 kts | 25° |
| 2026-04-21 00:37 | 33.64821 | 134.82161 | 25811 ft | 494 kts | 24° |
| 2026-04-21 00:37 | 33.67752 | 134.84254 | 25248 ft | 488 kts | 24° |
| 2026-04-21 00:37 | 33.70658 | 134.86338 | 24693 ft | 484 kts | 24° |
| 2026-04-21 00:37 | 33.73529 | 134.88422 | 24162 ft | 480 kts | 24° |
| 2026-04-21 00:38 | 33.76364 | 134.90502 | 23645 ft | 475 kts | 24° |
| 2026-04-21 00:38 | 33.79162 | 134.92564 | 23041 ft | 470 kts | 24° |
| 2026-04-21 00:38 | 33.81938 | 134.94613 | 22435 ft | 466 kts | 24° |
| 2026-04-21 00:38 | 33.84685 | 134.96643 | 21851 ft | 462 kts | 24° |
| 2026-04-21 00:39 | 33.87377 | 134.98639 | 21281 ft | 458 kts | 24° |
| 2026-04-21 00:39 | 33.90071 | 135.00641 | 20745 ft | 454 kts | 24° |
| 2026-04-21 00:39 | 33.92712 | 135.02604 | 20204 ft | 450 kts | 24° |
| 2026-04-21 00:39 | 33.95398 | 135.04602 | 19669 ft | 446 kts | 24° |
| 2026-04-21 00:40 | 33.98022 | 135.06554 | 19147 ft | 442 kts | 24° |
| 2026-04-21 00:40 | 34.00594 | 135.08468 | 18637 ft | 439 kts | 24° |
| 2026-04-21 00:40 | 34.03184 | 135.10397 | 18107 ft | 436 kts | 24° |
| 2026-04-21 00:40 | 34.05750 | 135.12308 | 17561 ft | 432 kts | 24° |
| 2026-04-21 00:41 | 34.08290 | 135.14201 | 17051 ft | 427 kts | 24° |
| 2026-04-21 00:41 | 34.10808 | 135.16080 | 16542 ft | 423 kts | 25° |
| 2026-04-21 00:41 | 34.13299 | 135.17941 | 16095 ft | 419 kts | 25° |
| 2026-04-21 00:41 | 34.15762 | 135.19782 | 15624 ft | 415 kts | 25° |
| 2026-04-21 00:42 | 34.18205 | 135.21609 | 15152 ft | 411 kts | 25° |
| 2026-04-21 00:42 | 34.20628 | 135.23422 | 14702 ft | 407 kts | 26° |
| 2026-04-21 00:42 | 34.23017 | 135.25231 | 14261 ft | 405 kts | 27° |
| 2026-04-21 00:42 | 34.25356 | 135.27111 | 13839 ft | 402 kts | 29° |
| 2026-04-21 00:43 | 34.27657 | 135.29010 | 13397 ft | 398 kts | 29° |
| 2026-04-21 00:43 | 34.29923 | 135.30887 | 12989 ft | 392 kts | 29° |
| 2026-04-21 00:43 | 34.32164 | 135.32735 | 12575 ft | 387 kts | 29° |
| 2026-04-21 00:43 | 34.34379 | 135.34550 | 12164 ft | 383 kts | 29° |
| 2026-04-21 00:44 | 34.36578 | 135.36349 | 11727 ft | 379 kts | 29° |
| 2026-04-21 00:44 | 34.38670 | 135.38058 | 11344 ft | 375 kts | 29° |
| 2026-04-21 00:44 | 34.40807 | 135.39807 | 11141 ft | 365 kts | 29° |
| 2026-04-21 00:45 | 34.44487 | 135.43293 | 10748 ft | 316 kts | 49° |
| 2026-04-21 00:45 | 34.45560 | 135.45512 | 10565 ft | 295 kts | 56° |
| 2026-04-21 00:45 | 34.46504 | 135.47629 | 10209 ft | 278 kts | 56° |
| 2026-04-21 00:45 | 34.47415 | 135.49650 | 9710 ft | 268 kts | 55° |
| 2026-04-21 00:46 | 34.48307 | 135.51609 | 9124 ft | 264 kts | 55° |
| 2026-04-21 00:46 | 34.49192 | 135.53538 | 8584 ft | 259 kts | 55° |
| 2026-04-21 00:46 | 34.50053 | 135.55419 | 8134 ft | 250 kts | 55° |
| 2026-04-21 00:46 | 34.50884 | 135.57231 | 7706 ft | 242 kts | 55° |
| 2026-04-21 00:47 | 34.51687 | 135.58984 | 7357 ft | 233 kts | 55° |
| 2026-04-21 00:47 | 34.52454 | 135.60656 | 7095 ft | 220 kts | 55° |
| 2026-04-21 00:47 | 34.53190 | 135.62259 | 6630 ft | 218 kts | 55° |
| 2026-04-21 00:47 | 34.53939 | 135.63871 | 6017 ft | 219 kts | 52° |
| 2026-04-21 00:48 | 34.54979 | 135.65083 | 5383 ft | 202 kts | 18° |
| 2026-04-21 00:48 | 34.56286 | 135.65406 | 4780 ft | 192 kts | 358° |
| 2026-04-21 00:48 | 34.57634 | 135.65432 | 4100 ft | 192 kts | 358° |
| 2026-04-21 00:48 | 34.58883 | 135.65433 | 3771 ft | 168 kts | 358° |
| 2026-04-21 00:49 | 34.59952 | 135.65240 | 3514 ft | 147 kts | 336° |
| 2026-04-21 00:49 | 34.60872 | 135.64675 | 3508 ft | 155 kts | 328° |
| 2026-04-21 00:49 | 34.61690 | 135.63855 | 3546 ft | 151 kts | 321° |
| 2026-04-21 00:49 | 34.62457 | 135.63009 | 3503 ft | 146 kts | 319° |
| 2026-04-21 00:50 | 34.63189 | 135.62161 | 3498 ft | 146 kts | 319° |
| 2026-04-21 00:50 | 34.63920 | 135.61294 | 3503 ft | 148 kts | 318° |
| 2026-04-21 00:50 | 34.64654 | 135.60414 | 3502 ft | 150 kts | 318° |
| 2026-04-21 00:50 | 34.65394 | 135.59519 | 3305 ft | 149 kts | 319° |
| 2026-04-21 00:51 | 34.66124 | 135.58639 | 3120 ft | 148 kts | 319° |
| 2026-04-21 00:51 | 34.66853 | 135.57755 | 2914 ft | 147 kts | 319° |
| 2026-04-21 00:51 | 34.67554 | 135.56904 | 2758 ft | 137 kts | 319° |
| 2026-04-21 00:51 | 34.68202 | 135.56119 | 2522 ft | 125 kts | 320° |
| 2026-04-21 00:52 | 34.68792 | 135.55403 | 2360 ft | 118 kts | 319° |
| 2026-04-21 00:52 | 34.69406 | 135.54666 | 2238 ft | 132 kts | 319° |
| 2026-04-21 00:52 | 34.70042 | 135.53889 | 2046 ft | 129 kts | 318° |
| 2026-04-21 00:52 | 34.70691 | 135.53105 | 1871 ft | 133 kts | 318° |
| 2026-04-21 00:53 | 34.71346 | 135.52310 | 1696 ft | 132 kts | 319° |
| 2026-04-21 00:53 | 34.71988 | 135.51543 | 1499 ft | 126 kts | 322° |
| 2026-04-21 00:53 | 34.72612 | 135.50794 | 1332 ft | 124 kts | 319° |
| 2026-04-21 00:53 | 34.73207 | 135.50053 | 1142 ft | 120 kts | 320° |
| 2026-04-21 00:54 | 34.73810 | 135.49322 | 1002 ft | 124 kts | 321° |
| 2026-04-21 00:54 | 34.74435 | 135.48569 | 834 ft | 129 kts | 317° |
| 2026-04-21 00:54 | 34.75042 | 135.47826 | 656 ft | 118 kts | 318° |
| 2026-04-21 00:54 | 34.75624 | 135.47100 | 598 ft | 123 kts | 314° |
| 2026-04-21 00:55 | 34.76246 | 135.46326 | 506 ft | 133 kts | 316° |
| 2026-04-21 00:55 | 34.76909 | 135.45524 | 254 ft | 134 kts | 320° |
| 2026-04-21 00:55 | 34.77547 | 135.44783 | 57 ft | 116 kts | 319° |
| 2026-04-21 00:55 | 34.78053 | 135.44176 | 50 ft | 89 kts | 315° |
| 2026-04-21 00:56 | 34.78405 | 135.43750 | 47 ft | 54 kts | 315° |
| 2026-04-21 00:56 | 34.78707 | 135.43497 | 47 ft | 46 kts | 336° |
| 2026-04-21 00:56 | 34.78866 | 135.43427 | 49 ft | 7 kts | 351° |
| 2026-04-21 00:56 | 34.78909 | 135.43424 | 51 ft | 0 kts | 4° |
| 2026-04-21 00:57 | 34.78925 | 135.43427 | 52 ft | 9 kts | 8° |
| 2026-04-21 00:57 | 34.78990 | 135.43448 | 51 ft | 10 kts | 21° |
| 2026-04-21 00:58 | 34.79044 | 135.43499 | 53 ft | 10 kts | 53° |
| 2026-04-21 00:58 | 34.79060 | 135.43589 | 48 ft | 12 kts | 105° |
| 2026-04-21 00:58 | 34.79028 | 135.43651 | 47 ft | 6 kts | 128° |
| 2026-04-21 00:58 | 34.78998 | 135.43691 | 48 ft | 10 kts | 135° |
| 2026-04-21 00:59 | 34.78903 | 135.43806 | 48 ft | 22 kts | 131° |
| 2026-04-21 00:59 | 34.78881 | 135.43918 | 51 ft | 13 kts | 95° |
| 2026-04-21 00:59 | 34.78840 | 135.44007 | 48 ft | 12 kts | 133° |
| 2026-04-21 00:59 | 34.78821 | 135.44031 | 48 ft | 4 kts | 133° |
| 2026-04-21 01:00 | 34.78777 | 135.44090 | 47 ft | 11 kts | 122° |
| 2026-04-21 01:00 | 34.78782 | 135.44179 | 51 ft | 8 kts | 69° |
| 2026-04-21 01:00 | 34.78794 | 135.44217 | 52 ft | 5 kts | 69° |
| 2026-04-21 01:00 | 34.78809 | 135.44262 | 51 ft | 6 kts | 68° |
| 2026-04-21 01:01 | 34.78812 | 135.44271 | 46 ft | 0 kts | 68° |